Friday, July 1, 2016, 9:26 AM EDT

KLKU, Louisa, Louisa County Airport/freeman Field

Location: Louisa, VA, United States Lat: 38.01
Local Time: 9:26 AM EDT (13:26 GMT) Lon: -77.97
Time Zone: US/Eastern Elev: 492 ft

Show me the last for .
Show Decoded

2016-07-01 09:15 METAR KLKU 011315Z AUTO 00000KT 10SM SCT120 26/22 A2998 RMK AO2 =
2016-07-01 08:57 METAR KLKU 011257Z AUTO 00000KT 10SM SCT038 26/22 A2998 RMK AO2 =
2016-07-01 08:55 METAR KLKU 011255Z AUTO 00000KT 10SM SCT038 120 26/22 A2998 RMK AO2 =
2016-07-01 08:35 METAR KLKU 011235Z AUTO 00000KT 10SM SCT038 120 24/22 A2998 RMK AO2 =
2016-07-01 08:15 METAR KLKU 011215Z AUTO 00000KT 10SM BKN036 24/22 A2998 RMK AO2 =
2016-07-01 07:55 METAR KLKU 011155Z AUTO 29003KT 10SM CLR 23/22 A2998 RMK AO2 =
2016-07-01 07:35 METAR KLKU 011135Z AUTO 00000KT 5SM BR CLR 22/22 A2997 RMK AO2 =
2016-07-01 07:15 METAR KLKU 011115Z AUTO 00000KT 3SM BR SCT030 SCT040 SCT046 22/21 A2997 RMK AO2
                 =
2016-07-01 06:55 METAR KLKU 011055Z AUTO 00000KT 5SM BR SCT032 BKN043 21/21 A2997 RMK AO2 =
2016-07-01 06:35 METAR KLKU 011035Z AUTO 00000KT 5SM BR SCT032 SCT043 20/19 A2997 RMK AO2 =
2016-07-01 06:15 METAR KLKU 011015Z AUTO 00000KT 2 1/2SM BR CLR 19/19 A2997 RMK AO2 VIS 1 1/2V5 =
2016-07-01 05:55 METAR KLKU 010955Z AUTO 00000KT 2 1/2SM BR SCT038 SCT050 18/18 A2996 RMK AO2 VIS
                 2V4 =
2016-07-01 05:35 METAR KLKU 010935Z AUTO 00000KT 1 1/4SM BR BKN050 18/18 A2997 RMK AO2 VIS 3/4V5
                 =
2016-07-01 05:15 METAR KLKU 010915Z AUTO 00000KT 2SM BR BKN050 18/18 A2997 RMK AO2 VIS 1 1/4V5 =
2016-07-01 04:55 METAR KLKU 010855Z AUTO 00000KT 4SM BR CLR 18/18 A2998 RMK AO2 =
2016-07-01 04:35 METAR KLKU 010835Z AUTO 00000KT 5SM BR CLR 19/19 A2997 RMK AO2 =
2016-07-01 04:15 METAR KLKU 010815Z AUTO 00000KT 1 1/2SM BR VV007 18/18 A2997 RMK AO2 VIS 1/2V5 =
2016-07-01 03:55 METAR KLKU 010755Z AUTO 00000KT 3/4SM BR VV005 19/18 A2997 RMK AO2 VIS 1/4V5 =
2016-07-01 03:35 METAR KLKU 010735Z AUTO 00000KT 3SM BR CLR 18/18 A2998 RMK AO2 =
2016-07-01 03:15 METAR KLKU 010715Z AUTO 00000KT 4SM BR CLR 19/18 A2998 RMK AO2 =
2016-07-01 02:55 METAR KLKU 010655Z AUTO 00000KT 5SM BR CLR 18/18 A2998 RMK AO2 =
2016-07-01 02:35 METAR KLKU 010635Z AUTO 00000KT 1 1/2SM BR VV007 19/18 A2999 RMK AO2 VIS 3/4V5 =
2016-07-01 02:15 METAR KLKU 010615Z AUTO 00000KT 1SM BR VV007 19/18 A2999 RMK AO2 =
2016-07-01 01:55 METAR KLKU 010555Z AUTO 00000KT 2SM BR CLR 19/19 A2999 RMK AO2 =
2016-07-01 01:35 METAR KLKU 010535Z AUTO 00000KT 3SM BR CLR 20/19 A3000 RMK AO2 =
2016-07-01 01:15 METAR KLKU 010515Z AUTO 00000KT 7SM CLR 20/19 A3001 RMK AO2 =
2016-07-01 00:55 METAR KLKU 010455Z AUTO 00000KT 4SM BR SCT037 20/19 A3002 RMK AO2 =
2016-07-01 00:35 METAR KLKU 010435Z AUTO 00000KT 7SM SCT037 21/19 A3002 RMK AO2 =
2016-07-01 00:15 METAR KLKU 010415Z AUTO 00000KT 10SM BKN037 21/20 A3002 RMK AO2 =
2016-06-30 23:55 METAR KLKU 010355Z AUTO 00000KT 7SM OVC037 21/20 A3002 RMK AO2 =
2016-06-30 23:35 METAR KLKU 010335Z AUTO 00000KT 10SM OVC037 21/20 A3002 RMK AO2 =
2016-06-30 23:15 METAR KLKU 010315Z AUTO 00000KT 7SM OVC037 21/19 A3002 RMK AO2 =
2016-06-30 22:55 METAR KLKU 010255Z AUTO 00000KT 10SM SCT037 21/19 A3002 RMK AO2 =
2016-06-30 22:35 METAR KLKU 010235Z AUTO 00000KT 10SM CLR 21/20 A3003 RMK AO2 =
2016-06-30 22:15 METAR KLKU 010215Z AUTO 00000KT 10SM CLR 21/20 A3002 RMK AO2 =
2016-06-30 21:55 METAR KLKU 010155Z AUTO 00000KT 10SM SCT042 22/21 A3002 RMK AO2 =
2016-06-30 21:35 METAR KLKU 010135Z AUTO 00000KT 10SM BKN042 23/21 A3001 RMK AO2 =
2016-06-30 21:15 METAR KLKU 010115Z AUTO 00000KT 10SM BKN038 OVC045 23/21 A3001 RMK AO2 =
2016-06-30 20:55 METAR KLKU 010055Z AUTO 00000KT 10SM SCT038 23/21 A3001 RMK AO2 =
2016-06-30 20:35 METAR KLKU 010035Z AUTO 00000KT 10SM SCT038 24/22 A3001 RMK AO2 =
2016-06-30 20:15 METAR KLKU 010015Z AUTO 00000KT 10SM CLR 24/22 A3001 RMK AO2 =
2016-06-30 19:55 METAR KLKU 302355Z AUTO 00000KT 10SM CLR 26/22 A3001 RMK AO2 =
2016-06-30 19:35 METAR KLKU 302335Z AUTO 00000KT 10SM CLR 28/21 A3001 RMK AO2 =
2016-06-30 19:15 METAR KLKU 302315Z AUTO 00000KT 10SM CLR 28/21 A3001 RMK AO2 =
2016-06-30 18:55 METAR KLKU 302255Z AUTO 00000KT 10SM CLR 28/20 A3001 RMK AO2 =
2016-06-30 18:35 METAR KLKU 302235Z AUTO 10003KT 10SM SCT044 28/19 A3001 RMK AO2 =
2016-06-30 18:15 METAR KLKU 302215Z AUTO 00000KT 10SM CLR 28/19 A3001 RMK AO2 =
2016-06-30 17:55 METAR KLKU 302155Z AUTO 00000KT 10SM SCT047 28/19 A3001 RMK AO2 =
2016-06-30 17:35 METAR KLKU 302135Z AUTO 11003KT 10SM SCT045 SCT060 BKN080 28/19 A3001 RMK AO2 =
2016-06-30 17:15 METAR KLKU 302115Z AUTO 00000KT 10SM SCT043 SCT060 BKN080 29/19 A3002 RMK AO2 =
2016-06-30 16:55 METAR KLKU 302055Z AUTO 00000KT 10SM SCT048 SCT080 29/19 A3002 RMK AO2 =
2016-06-30 16:35 METAR KLKU 302035Z AUTO 06003KT 10SM SCT050 BKN060 28/19 A3003 RMK AO2 =
2016-06-30 16:15 METAR KLKU 302015Z AUTO 00000KT 10SM OVC050 28/19 A3003 RMK AO2 =
2016-06-30 15:55 METAR KLKU 301955Z AUTO 00000KT 10SM SCT048 BKN065 OVC080 28/19 A3003 RMK AO2 =
2016-06-30 15:35 METAR KLKU 301935Z AUTO 00000KT 10SM OVC065 28/18 A3003 RMK AO2 =
2016-06-30 15:15 METAR KLKU 301915Z AUTO 14003KT 10SM BKN065 28/18 A3004 RMK AO2 =
2016-06-30 14:55 METAR KLKU 301855Z AUTO 00000KT 10SM SCT050 SCT065 28/17 A3004 RMK AO2 =
2016-06-30 14:35 METAR KLKU 301835Z AUTO 13003KT 10SM BKN050 BKN065 27/18 A3004 RMK AO2 =
2016-06-30 14:15 METAR KLKU 301815Z AUTO 09005KT 10SM BKN050 28/18 A3005 RMK AO2 =
2016-06-30 13:55 METAR KLKU 301755Z AUTO 00000KT 10SM OVC050 28/17 A3005 RMK AO2 =
2016-06-30 13:35 METAR KLKU 301735Z AUTO 11003KT 10SM OVC050 28/17 A3006 RMK AO2 =
2016-06-30 13:15 METAR KLKU 301715Z AUTO 00000KT 10SM BKN048 OVC055 27/16 A3006 RMK AO2 =
2016-06-30 12:55 METAR KLKU 301655Z AUTO 00000KT 10SM BKN048 27/16 A3007 RMK AO2 =
2016-06-30 12:35 METAR KLKU 301635Z AUTO 00000KT 10SM BKN050 BKN065 27/18 A3007 RMK AO2 =
2016-06-30 12:15 METAR KLKU 301615Z AUTO 00000KT 10SM OVC048 26/17 A3007 RMK AO2 =
2016-06-30 11:55 METAR KLKU 301555Z AUTO 00000KT 10SM OVC048 26/16 A3007 RMK AO2 =
2016-06-30 11:35 METAR KLKU 301535Z AUTO 12003KT 10SM OVC050 27/17 A3007 RMK AO2 =
2016-06-30 11:15 METAR KLKU 301515Z AUTO 00000KT 10SM BKN050 27/16 A3007 RMK AO2 =
2016-06-30 10:55 METAR KLKU 301455Z AUTO 15004KT 10SM SCT050 26/16 A3007 RMK AO2 =
2016-06-30 10:35 METAR KLKU 301435Z AUTO 11005KT 10SM SCT050 26/16 A3007 RMK AO2 =
2016-06-30 10:15 METAR KLKU 301415Z AUTO 00000KT 10SM SCT050 26/17 A3006 RMK AO2 =
2016-06-30 09:55 METAR KLKU 301355Z AUTO 05003KT 10SM SCT050 25/17 A3007 RMK AO2 =
2016-06-30 09:35 METAR KLKU 301335Z AUTO 05005KT 10SM CLR 25/17 A3007 RMK AO2 =

Support USWX by starting your Amazon purchase here.